Time;durP1;ratioP1;P1;durP2;ratioP2;P2;SDS_P1;SDS_P2;PMS_P1;PMS_P2;Temp;Humidity;BMP_temperature;BMP_pressure;BME280_temperature;BME280_humidity;BME280_pressure;Samples;Min_cycle;Max_cycle;Signal;HPM_P1;HPM_P2
2021/01/27 00:01:58;;;;;;;9.40;8.10;;;1.10;99.90;;;;;;5055022;28;20321;-50
2021/01/27 00:04:23;;;;;;;10.80;8.80;;;1.10;99.90;;;;;;5055384;28;20181;-53
2021/01/27 00:06:49;;;;;;;10.20;7.93;;;1.10;99.90;;;;;;5057017;28;20266;-52
2021/01/27 00:09:14;;;;;;;10.67;8.17;;;1.10;99.90;;;;;;5057764;28;20291;-52
2021/01/27 00:11:40;;;;;;;11.87;8.60;;;1.00;99.90;;;;;;5053624;28;20297;-54
2021/01/27 00:14:05;;;;;;;10.23;8.50;;;1.00;99.90;;;;;;5056748;28;20182;-53
2021/01/27 00:16:31;;;;;;;9.17;8.17;;;1.00;99.90;;;;;;5056152;28;20175;-57
2021/01/27 00:18:56;;;;;;;10.20;8.40;;;1.00;99.90;;;;;;5056089;28;20760;-50
2021/01/27 00:21:22;;;;;;;10.73;8.87;;;0.90;99.90;;;;;;5054655;28;20204;-53
2021/01/27 00:23:47;;;;;;;11.33;8.53;;;0.90;99.90;;;;;;5055024;28;20286;-52
2021/01/27 00:26:13;;;;;;;10.73;8.47;;;0.90;99.90;;;;;;5054586;28;20179;-54
2021/01/27 00:28:38;;;;;;;9.17;8.27;;;0.90;99.90;;;;;;5055541;28;20667;-54
2021/01/27 00:31:04;;;;;;;9.60;8.60;;;0.90;99.90;;;;;;5053667;28;20574;-56
2021/01/27 00:33:30;;;;;;;9.83;8.83;;;0.90;99.90;;;;;;5069715;28;20197;-54
2021/01/27 00:35:55;;;;;;;10.07;8.97;;;0.90;99.90;;;;;;5055004;28;20187;-57
2021/01/27 00:38:24;;;;;;;9.50;8.13;;;0.90;99.90;;;;;;5055287;28;20203;-55
2021/01/27 00:40:55;;;;;;;11.10;8.83;;;0.90;99.90;;;;;;5055787;28;20190;-51
2021/01/27 00:43:20;;;;;;;10.83;8.83;;;0.90;99.90;;;;;;5057381;28;20504;-54
2021/01/27 00:45:47;;;;;;;11.07;8.30;;;0.90;99.90;;;;;;5072587;28;20441;-56
2021/01/27 00:48:12;;;;;;;11.10;8.73;;;1.00;99.90;;;;;;5054204;28;20272;-57
2021/01/27 00:50:38;;;;;;;9.47;8.47;;;1.00;99.90;;;;;;5057575;28;20784;-52
2021/01/27 00:53:04;;;;;;;9.20;7.80;;;1.10;99.90;;;;;;5054240;28;20643;-53
2021/01/27 00:55:31;;;;;;;12.70;9.10;;;1.10;99.90;;;;;;5071631;28;20274;-51
2021/01/27 00:57:58;;;;;;;10.70;8.40;;;1.10;99.90;;;;;;5057395;28;20977;-56
2021/01/27 01:00:28;;;;;;;10.97;8.60;;;1.10;99.90;;;;;;5056698;28;20806;-55
2021/01/27 01:02:54;;;;;;;11.03;8.50;;;1.10;99.90;;;;;;5072311;28;20410;-57
2021/01/27 01:05:27;;;;;;;9.37;8.10;;;1.10;99.90;;;;;;5056849;28;20410;-57
2021/01/27 01:07:52;;;;;;;9.83;8.67;;;1.20;99.90;;;;;;5059056;28;20179;-53
2021/01/27 01:10:20;;;;;;;10.47;8.60;;;1.20;99.90;;;;;;5053909;28;20457;-53
2021/01/27 01:12:46;;;;;;;10.63;8.70;;;1.10;99.90;;;;;;5058370;28;20230;-54
2021/01/27 01:15:12;;;;;;;10.83;9.10;;;1.10;99.90;;;;;;5053409;28;20448;-49
2021/01/27 01:17:38;;;;;;;11.43;8.93;;;1.00;99.90;;;;;;5055965;28;20685;-50
2021/01/27 01:20:06;;;;;;;13.20;9.40;;;1.00;99.90;;;;;;5055382;28;20453;-57
2021/01/27 01:22:31;;;;;;;10.00;8.30;;;1.00;99.90;;;;;;5054634;28;20441;-56
2021/01/27 01:24:57;;;;;;;11.00;9.73;;;1.00;99.90;;;;;;5054136;28;20937;-53
2021/01/27 01:27:23;;;;;;;11.47;9.10;;;1.00;99.90;;;;;;5053828;28;20179;-53
2021/01/27 01:29:48;;;;;;;10.43;9.00;;;1.10;99.90;;;;;;5057730;28;20220;-53
2021/01/27 01:32:14;;;;;;;9.80;8.80;;;1.00;99.90;;;;;;5055262;28;20221;-51
2021/01/27 01:34:39;;;;;;;12.77;8.67;;;0.90;99.90;;;;;;5053547;28;20258;-54
2021/01/27 01:37:05;;;;;;;12.60;9.70;;;0.90;99.90;;;;;;5053254;28;20174;-50
2021/01/27 01:39:30;;;;;;;9.80;8.67;;;0.90;99.90;;;;;;5053418;28;20214;-55
2021/01/27 01:41:56;;;;;;;10.47;9.00;;;0.90;99.90;;;;;;5053943;28;20171;-51
2021/01/27 01:44:21;;;;;;;11.70;9.63;;;1.00;99.90;;;;;;5054079;28;20183;-50
2021/01/27 01:46:47;;;;;;;10.43;9.27;;;0.90;99.90;;;;;;5054438;28;20658;-50
2021/01/27 01:49:13;;;;;;;11.43;9.43;;;0.80;99.90;;;;;;5053302;28;20231;-53
2021/01/27 01:51:45;;;;;;;11.10;9.47;;;0.80;99.90;;;;;;5053406;28;20686;-54
2021/01/27 01:54:23;;;;;;;12.23;9.27;;;0.80;99.90;;;;;;5054392;28;20406;-54
2021/01/27 01:56:58;;;;;;;11.00;9.10;;;0.90;99.90;;;;;;5053982;28;20405;-56
2021/01/27 01:59:26;;;;;;;11.87;9.83;;;1.00;99.90;;;;;;5053177;28;20434;-53
2021/01/27 02:02:01;;;;;;;12.13;9.53;;;1.00;99.90;;;;;;5054362;28;20419;-54
2021/01/27 02:04:31;;;;;;;10.10;8.87;;;0.90;99.90;;;;;;5053907;28;20460;-50
2021/01/27 02:06:57;;;;;;;10.53;9.00;;;1.00;99.90;;;;;;5055221;28;20436;-52
2021/01/27 02:09:23;;;;;;;12.90;10.27;;;1.00;99.90;;;;;;5053590;28;20437;-53
2021/01/27 02:12:16;;;;;;;11.40;9.90;;;1.00;99.90;;;;;;5054837;28;20215;-53
2021/01/27 02:14:53;;;;;;;13.43;9.73;;;1.00;99.90;;;;;;5054418;28;20175;-51
2021/01/27 02:17:48;;;;;;;12.30;10.13;;;1.00;99.90;;;;;;5054168;28;20409;-55
2021/01/27 02:20:32;;;;;;;12.10;10.13;;;1.00;99.90;;;;;;5055316;28;20433;-52
2021/01/27 02:23:35;;;;;;;13.27;10.43;;;0.90;99.90;;;;;;5055233;28;20410;-49
2021/01/27 02:26:35;;;;;;;11.63;10.43;;;0.90;99.90;;;;;;5053128;28;20569;-54
2021/01/27 02:29:36;;;;;;;13.23;10.63;;;0.90;99.90;;;;;;5054927;28;20443;-50
2021/01/27 02:32:19;;;;;;;11.40;9.67;;;0.90;99.90;;;;;;5053029;28;20448;-52
2021/01/27 02:35:08;;;;;;;11.83;10.53;;;0.90;99.90;;;;;;5054092;28;20418;-52
2021/01/27 02:37:41;;;;;;;12.10;10.90;;;0.90;99.90;;;;;;5058404;28;20417;-52
2021/01/27 02:40:17;;;;;;;12.60;10.87;;;0.90;99.90;;;;;;5058585;28;20440;-52
2021/01/27 02:42:50;;;;;;;15.27;11.47;;;0.90;99.90;;;;;;5057687;28;20401;-52
2021/01/27 02:45:23;;;;;;;15.27;11.27;;;0.90;99.90;;;;;;5057641;28;20798;-55
2021/01/27 02:48:06;;;;;;;13.73;10.83;;;0.90;99.90;;;;;;5057276;28;20398;-54
2021/01/27 02:50:51;;;;;;;12.97;11.00;;;0.90;99.90;;;;;;5058046;28;20913;-55
2021/01/27 02:53:28;;;;;;;14.30;11.13;;;0.90;99.90;;;;;;5072315;28;20441;-53
2021/01/27 02:55:57;;;;;;;12.30;10.67;;;1.10;99.90;;;;;;5056553;28;20511;-54
2021/01/27 02:58:37;;;;;;;12.40;11.10;;;1.20;99.90;;;;;;5057901;28;20436;-54
2021/01/27 03:01:10;;;;;;;12.03;10.70;;;1.30;99.90;;;;;;5065085;28;20494;-54
2021/01/27 03:03:43;;;;;;;13.27;11.20;;;1.30;99.90;;;;;;5058136;28;20424;-56
2021/01/27 03:06:16;;;;;;;12.47;11.17;;;1.30;99.90;;;;;;5056544;28;20406;-49
2021/01/27 03:09:04;;;;;;;12.07;10.77;;;1.30;99.90;;;;;;5057285;28;20430;-54
2021/01/27 03:11:33;;;;;;;14.43;11.30;;;1.30;99.90;;;;;;5055397;28;20478;-53
2021/01/27 03:14:00;;;;;;;12.67;10.03;;;1.20;99.90;;;;;;5056775;28;20409;-51
2021/01/27 03:17:06;;;;;;;13.20;11.20;;;1.20;99.90;;;;;;5056622;28;20414;-52
2021/01/27 03:19:40;;;;;;;15.13;12.43;;;1.20;99.90;;;;;;5055342;28;20483;-51
2021/01/27 03:22:14;;;;;;;13.87;11.77;;;1.10;99.90;;;;;;5058136;28;20718;-55
2021/01/27 03:24:57;;;;;;;15.30;12.70;;;1.00;99.90;;;;;;5058581;28;20445;-52
2021/01/27 03:27:26;;;;;;;14.67;12.17;;;1.00;99.90;;;;;;5056187;28;20397;-54
2021/01/27 03:29:54;;;;;;;15.17;12.07;;;0.90;99.90;;;;;;5058809;28;20917;-49
2021/01/27 03:32:20;;;;;;;14.00;12.23;;;0.90;99.90;;;;;;5054169;28;20469;-55
2021/01/27 03:34:51;;;;;;;14.13;12.47;;;0.90;99.90;;;;;;5055770;28;20468;-52
2021/01/27 03:37:35;;;;;;;15.07;12.30;;;0.90;99.90;;;;;;5055427;28;20171;-57
2021/01/27 03:40:07;;;;;;;14.77;12.43;;;0.90;99.90;;;;;;5056347;28;20421;-51
2021/01/27 03:42:54;;;;;;;16.27;12.83;;;1.00;99.90;;;;;;5056603;28;20405;-49
2021/01/27 03:45:23;;;;;;;16.60;13.37;;;0.90;99.90;;;;;;5056106;28;20440;-51
2021/01/27 03:48:08;;;;;;;16.20;13.63;;;0.80;99.90;;;;;;5057655;28;20514;-55
2021/01/27 03:50:35;;;;;;;14.20;12.70;;;0.80;99.90;;;;;;5057647;28;20417;-51
2021/01/27 03:53:15;;;;;;;16.07;13.80;;;0.80;99.90;;;;;;5057608;28;20413;-55
2021/01/27 03:56:05;;;;;;;16.00;13.47;;;0.70;99.90;;;;;;5055126;28;20424;-52
2021/01/27 03:58:39;;;;;;;15.53;13.30;;;0.80;99.90;;;;;;5057165;28;20416;-50
2021/01/27 04:01:07;;;;;;;17.30;13.23;;;0.80;99.90;;;;;;5056346;28;20881;-54
2021/01/27 04:03:33;;;;;;;21.93;14.63;;;0.80;99.90;;;;;;5056731;28;20754;-53
2021/01/27 04:05:58;;;;;;;15.90;14.10;;;0.90;99.90;;;;;;5054961;28;20885;-50
2021/01/27 04:08:24;;;;;;;16.90;14.27;;;0.90;99.90;;;;;;5058463;28;20199;-52
2021/01/27 04:10:50;;;;;;;19.07;14.97;;;0.90;99.90;;;;;;5056821;28;20194;-50
2021/01/27 04:13:15;;;;;;;18.73;14.67;;;0.80;99.90;;;;;;5055788;28;20167;-56
2021/01/27 04:15:41;;;;;;;16.13;13.87;;;0.80;99.90;;;;;;5056060;28;20763;-54
2021/01/27 04:18:06;;;;;;;17.20;14.63;;;0.70;99.90;;;;;;5056797;28;20171;-52
2021/01/27 04:20:32;;;;;;;16.90;14.00;;;0.70;99.90;;;;;;5054833;28;20171;-52
2021/01/27 04:22:58;;;;;;;17.33;14.40;;;0.70;99.90;;;;;;5054633;28;20179;-54
2021/01/27 04:25:23;;;;;;;16.33;14.00;;;0.80;99.90;;;;;;5062050;28;20237;-54
2021/01/27 04:27:49;;;;;;;17.13;14.30;;;0.90;99.90;;;;;;5057553;28;20224;-53
2021/01/27 04:30:21;;;;;;;14.70;12.87;;;0.90;99.90;;;;;;5054501;28;20202;-55
2021/01/27 04:32:46;;;;;;;15.40;13.00;;;0.90;99.90;;;;;;5055601;28;20198;-52
2021/01/27 04:35:13;;;;;;;18.17;14.67;;;0.90;99.90;;;;;;5056606;28;20418;-54
2021/01/27 04:37:39;;;;;;;18.60;14.80;;;0.90;99.90;;;;;;5055285;28;20175;-50
2021/01/27 04:40:12;;;;;;;16.30;14.07;;;1.00;99.90;;;;;;5054292;28;20426;-50
2021/01/27 04:42:38;;;;;;;17.43;14.10;;;0.90;99.90;;;;;;5055597;28;20243;-52
2021/01/27 04:45:05;;;;;;;18.07;14.13;;;0.90;99.90;;;;;;5057575;28;20496;-56
2021/01/27 04:47:41;;;;;;;17.77;14.43;;;0.90;99.90;;;;;;5055113;28;20178;-58
2021/01/27 04:50:30;;;;;;;16.33;14.27;;;0.90;99.90;;;;;;5055231;28;20448;-53
2021/01/27 04:53:48;;;;;;;17.07;14.40;;;0.90;99.90;;;;;;5053764;28;20940;-52
2021/01/27 04:56:31;;;;;;;17.90;14.43;;;0.90;99.90;;;;;;5051732;28;20510;-54
2021/01/27 04:59:00;;;;;;;16.73;13.77;;;0.90;99.90;;;;;;5054014;28;20430;-52
2021/01/27 05:01:28;;;;;;;17.23;14.03;;;0.90;99.90;;;;;;5054004;28;20739;-50
2021/01/27 05:04:18;;;;;;;17.53;14.77;;;0.90;99.90;;;;;;5055019;28;20417;-57
2021/01/27 05:06:55;;;;;;;15.13;13.30;;;0.90;99.90;;;;;;5057230;28;20948;-54
2021/01/27 05:09:31;;;;;;;16.80;13.00;;;0.90;99.90;;;;;;5055906;28;20429;-56
2021/01/27 05:11:59;;;;;;;16.37;14.53;;;0.90;99.90;;;;;;5056047;28;20453;-54
2021/01/27 05:14:25;;;;;;;17.47;13.67;;;0.90;99.90;;;;;;5056728;28;20418;-52
2021/01/27 05:16:52;;;;;;;17.20;14.50;;;0.90;99.90;;;;;;5054715;28;20437;-50
2021/01/27 05:19:18;;;;;;;19.53;14.07;;;0.90;99.90;;;;;;5054751;28;20426;-53
2021/01/27 05:21:49;;;;;;;16.40;13.90;;;0.90;99.90;;;;;;5056608;28;20429;-50
2021/01/27 05:24:14;;;;;;;16.77;13.40;;;0.90;99.90;;;;;;5053799;28;20182;-54
2021/01/27 05:26:48;;;;;;;16.57;12.50;;;0.90;99.90;;;;;;5055738;28;20769;-52
2021/01/27 05:29:24;;;;;;;15.43;13.10;;;0.90;99.90;;;;;;5053577;28;20234;-56
2021/01/27 05:32:06;;;;;;;16.17;12.93;;;0.90;99.90;;;;;;5054578;28;20460;-54
2021/01/27 05:34:35;;;;;;;17.23;13.80;;;0.90;99.90;;;;;;5054023;28;20405;-55
2021/01/27 05:37:14;;;;;;;14.80;13.00;;;0.90;99.90;;;;;;5055460;28;20409;-53
2021/01/27 05:39:41;;;;;;;15.23;13.03;;;1.00;99.90;;;;;;5054571;28;20421;-51
2021/01/27 05:42:13;;;;;;;14.40;12.90;;;1.10;99.90;;;;;;5053623;28;20517;-51
2021/01/27 05:44:40;;;;;;;18.27;14.83;;;1.10;99.90;;;;;;5054451;28;20416;-54
2021/01/27 05:47:25;;;;;;;18.60;14.10;;;1.20;99.90;;;;;;5054915;28;20424;-57
2021/01/27 05:49:52;;;;;;;18.40;14.40;;;1.20;99.90;;;;;;5053024;28;20437;-52
2021/01/27 05:52:24;;;;;;;19.63;14.00;;;1.30;99.90;;;;;;5054456;28;20453;-53
2021/01/27 05:54:50;;;;;;;16.20;14.03;;;1.30;99.90;;;;;;5056464;28;20769;-51
2021/01/27 05:57:28;;;;;;;22.13;15.40;;;1.30;99.90;;;;;;5055104;28;20418;-51
2021/01/27 06:00:26;;;;;;;18.37;14.23;;;1.30;99.90;;;;;;5053030;28;20682;-52
2021/01/27 06:02:52;;;;;;;16.33;13.43;;;1.30;99.90;;;;;;5059695;28;20447;-50
2021/01/27 06:05:28;;;;;;;17.57;13.73;;;1.30;99.90;;;;;;5053265;28;20420;-51
2021/01/27 06:08:06;;;;;;;16.23;13.67;;;1.30;99.90;;;;;;5053459;28;20753;-53
2021/01/27 06:10:34;;;;;;;19.20;13.60;;;1.20;99.90;;;;;;5057097;28;20457;-56
2021/01/27 06:13:20;;;;;;;18.47;14.27;;;1.20;99.90;;;;;;5059450;28;20813;-50
2021/01/27 06:15:46;;;;;;;20.20;15.63;;;1.30;99.90;;;;;;5065320;28;20817;-57
2021/01/27 06:18:19;;;;;;;19.10;14.63;;;1.30;99.90;;;;;;5068261;28;20974;-54
2021/01/27 06:20:45;;;;;;;18.10;14.60;;;1.20;99.90;;;;;;5067134;28;20202;-52
2021/01/27 06:23:24;;;;;;;16.27;13.20;;;1.20;99.90;;;;;;5078261;28;20408;-53
2021/01/27 06:26:23;;;;;;;17.77;14.27;;;1.20;99.90;;;;;;5068624;28;20257;-54
2021/01/27 06:28:55;;;;;;;20.20;15.37;;;1.10;99.90;;;;;;5065868;28;20456;-54
2021/01/27 06:31:39;;;;;;;17.83;14.37;;;1.10;99.90;;;;;;5059832;28;20583;-51
2021/01/27 06:34:31;;;;;;;17.67;13.67;;;1.10;99.90;;;;;;5077515;28;20437;-52
2021/01/27 06:37:21;;;;;;;18.67;14.70;;;1.10;99.90;;;;;;5072761;28;20980;-54
2021/01/27 06:40:08;;;;;;;19.40;15.00;;;1.10;99.90;;;;;;5058027;28;20571;-51
2021/01/27 06:43:05;;;;;;;16.83;13.73;;;1.10;99.90;;;;;;5065077;28;20435;-58
2021/01/27 06:46:10;;;;;;;16.73;13.43;;;1.20;99.90;;;;;;5034152;28;20800;-51
2021/01/27 06:49:22;;;;;;;24.53;15.87;;;1.20;99.90;;;;;;5035481;28;20928;-53
2021/01/27 06:52:11;;;;;;;20.37;14.47;;;1.20;99.90;;;;;;5031913;28;20811;-53
2021/01/27 06:54:59;;;;;;;18.50;14.23;;;1.20;99.90;;;;;;5031730;28;20426;-55
2021/01/27 06:57:58;;;;;;;16.50;12.97;;;1.20;99.90;;;;;;5035603;28;20418;-55
2021/01/27 07:00:43;;;;;;;19.83;13.77;;;1.20;99.90;;;;;;5029154;28;20862;-54
2021/01/27 07:03:21;;;;;;;18.27;13.23;;;1.20;99.90;;;;;;5032102;28;20426;-52
2021/01/27 07:06:23;;;;;;;16.07;13.60;;;1.10;99.90;;;;;;5032189;28;20563;-55
2021/01/27 07:09:05;;;;;;;14.90;11.67;;;1.10;99.90;;;;;;5030243;28;20529;-52
2021/01/27 07:12:22;;;;;;;15.73;12.33;;;1.00;99.90;;;;;;5031713;28;20839;-56
2021/01/27 07:15:17;;;;;;;14.03;11.27;;;1.00;99.90;;;;;;4996833;28;20410;-52
2021/01/27 07:17:51;;;;;;;13.17;11.20;;;1.00;99.90;;;;;;5034029;28;20423;-50
2021/01/27 07:20:41;;;;;;;14.70;10.60;;;0.90;99.90;;;;;;5032517;28;20407;-50
2021/01/27 07:23:27;;;;;;;14.40;10.97;;;0.80;99.90;;;;;;5076665;28;20421;-51
2021/01/27 07:26:15;;;;;;;12.60;10.73;;;0.80;99.90;;;;;;5075271;28;20429;-53
2021/01/27 07:29:21;;;;;;;13.77;10.23;;;0.70;99.90;;;;;;5062554;28;20436;-52
2021/01/27 07:31:54;;;;;;;12.60;9.90;;;0.60;99.90;;;;;;5025813;28;20529;-51
2021/01/27 07:34:39;;;;;;;13.53;9.87;;;0.60;99.90;;;;;;5035159;28;21021;-51
2021/01/27 07:37:27;;;;;;;15.53;10.70;;;0.50;99.90;;;;;;5013671;28;20551;-50
2021/01/27 07:40:14;;;;;;;12.17;10.53;;;0.60;99.90;;;;;;5019393;28;20568;-52
2021/01/27 07:42:58;;;;;;;12.83;9.93;;;0.60;99.90;;;;;;5030253;28;20433;-50
2021/01/27 07:45:32;;;;;;;12.73;9.67;;;0.60;99.90;;;;;;5015033;28;20426;-54
2021/01/27 07:48:27;;;;;;;12.47;9.90;;;0.70;99.90;;;;;;5014666;28;20420;-52
2021/01/27 07:51:00;;;;;;;11.57;9.30;;;0.70;99.90;;;;;;5027127;28;20434;-56
2021/01/27 07:53:32;;;;;;;11.93;10.03;;;0.70;99.90;;;;;;5017780;28;20435;-54
2021/01/27 07:56:24;;;;;;;15.83;10.90;;;0.70;99.90;;;;;;5013095;28;20431;-52
2021/01/27 07:59:28;;;;;;;12.00;9.93;;;0.70;99.90;;;;;;5014248;28;20436;-51
2021/01/27 08:02:05;;;;;;;11.27;8.97;;;0.70;99.90;;;;;;5022661;28;20477;-52
2021/01/27 08:04:55;;;;;;;11.73;9.33;;;0.70;99.90;;;;;;5025104;28;20434;-54
2021/01/27 08:07:32;;;;;;;10.97;8.87;;;0.70;99.90;;;;;;5034583;28;20417;-53
2021/01/27 08:10:13;;;;;;;11.57;8.87;;;0.70;99.90;;;;;;5069997;28;20473;-50
2021/01/27 08:12:43;;;;;;;12.60;9.17;;;0.80;99.90;;;;;;5057788;28;20481;-57
2021/01/27 08:15:40;;;;;;;13.03;8.50;;;0.80;99.90;;;;;;5063606;28;20433;-54
2021/01/27 08:18:13;;;;;;;10.33;8.57;;;0.80;99.90;;;;;;5069920;28;20507;-58
2021/01/27 08:20:46;;;;;;;10.07;8.03;;;0.80;99.90;;;;;;5071757;28;20502;-49
2021/01/27 08:23:21;;;;;;;10.47;8.10;;;0.90;99.90;;;;;;5073224;28;20401;-49
2021/01/27 08:26:00;;;;;;;10.27;8.60;;;0.90;99.90;;;;;;5066584;28;20413;-53
2021/01/27 08:28:35;;;;;;;10.73;8.47;;;1.00;99.90;;;;;;5070190;28;20697;-48
2021/01/27 08:31:10;;;;;;;10.37;7.60;;;1.00;99.90;;;;;;5059121;28;20544;-50
2021/01/27 08:33:47;;;;;;;10.13;7.93;;;1.00;99.90;;;;;;5063255;28;20424;-49
2021/01/27 08:36:30;;;;;;;9.70;8.17;;;1.10;99.90;;;;;;5070547;28;20448;-53
2021/01/27 08:38:56;;;;;;;11.63;8.27;;;1.30;99.90;;;;;;5053951;28;20469;-48
2021/01/27 08:41:58;;;;;;;7.90;7.03;;;1.50;99.90;;;;;;5066068;28;20467;-48
2021/01/27 08:44:40;;;;;;;11.63;7.70;;;1.80;99.90;;;;;;5086950;28;20193;-47
2021/01/27 08:47:14;;;;;;;10.00;7.83;;;1.90;99.90;;;;;;5087748;28;20412;-50
2021/01/27 08:49:50;;;;;;;9.17;7.40;;;2.00;99.90;;;;;;5053573;28;20445;-51
2021/01/27 08:52:16;;;;;;;9.67;7.70;;;2.20;99.90;;;;;;5069405;28;20443;-51
2021/01/27 08:54:41;;;;;;;10.10;7.60;;;2.40;99.90;;;;;;5093102;28;20418;-55
2021/01/27 08:57:37;;;;;;;10.43;7.20;;;2.40;99.90;;;;;;5080222;28;20186;-52
2021/01/27 09:00:33;;;;;;;8.47;7.40;;;2.40;99.90;;;;;;5058245;28;20220;-54
2021/01/27 09:03:02;;;;;;;8.47;6.93;;;2.40;99.90;;;;;;5060491;28;20533;-49
2021/01/27 09:05:28;;;;;;;8.50;6.60;;;2.80;99.90;;;;;;5071411;28;20187;-50
2021/01/27 09:08:25;;;;;;;6.10;5.30;;;3.80;99.90;;;;;;5071729;28;20174;-50
2021/01/27 09:10:57;;;;;;;7.63;5.30;;;5.90;99.90;;;;;;5067614;28;20212;-54
2021/01/27 09:13:26;;;;;;;5.50;5.00;;;8.60;99.90;;;;;;5058192;28;20319;-55
2021/01/27 09:15:56;;;;;;;7.13;5.50;;;11.10;99.90;;;;;;5064626;28;20216;-57
2021/01/27 09:18:22;;;;;;;6.00;4.93;;;12.10;99.70;;;;;;5052737;28;20183;-53
2021/01/27 09:20:48;;;;;;;6.27;5.27;;;12.10;98.00;;;;;;5052942;28;20201;-51
2021/01/27 09:23:18;;;;;;;7.87;5.60;;;12.30;96.60;;;;;;5052104;28;20539;-51
2021/01/27 09:25:47;;;;;;;6.00;5.40;;;11.80;95.90;;;;;;5052682;28;20175;-50
2021/01/27 09:28:19;;;;;;;5.70;5.10;;;12.10;96.90;;;;;;5053018;28;20245;-51
2021/01/27 09:30:44;;;;;;;5.90;5.30;;;12.60;97.70;;;;;;5052076;28;20163;-57
2021/01/27 09:33:26;;;;;;;6.80;5.37;;;12.80;96.40;;;;;;5053509;28;20203;-55
2021/01/27 09:36:21;;;;;;;7.30;5.50;;;12.70;96.50;;;;;;5053890;28;20194;-52
2021/01/27 09:38:52;;;;;;;7.60;5.77;;;11.90;95.40;;;;;;5052864;28;20686;-50
2021/01/27 09:41:23;;;;;;;6.80;6.10;;;11.30;96.80;;;;;;5053300;28;20225;-53
2021/01/27 09:43:50;;;;;;;9.27;6.37;;;11.00;97.10;;;;;;5054656;28;20182;-54
2021/01/27 09:46:26;;;;;;;7.80;6.50;;;10.70;97.50;;;;;;5057642;28;20203;-55
2021/01/27 09:48:55;;;;;;;7.67;6.87;;;10.60;98.10;;;;;;5058009;28;20233;-57
2021/01/27 09:51:22;;;;;;;7.73;6.40;;;10.40;97.90;;;;;;5057345;28;20222;-52
2021/01/27 09:53:48;;;;;;;8.17;6.73;;;10.30;98.30;;;;;;5057856;28;20654;-51
2021/01/27 09:56:17;;;;;;;7.77;6.50;;;10.60;98.70;;;;;;5057500;28;20237;-55
2021/01/27 09:58:44;;;;;;;6.87;6.00;;;10.90;98.50;;;;;;5057684;28;20197;-52
2021/01/27 10:01:17;;;;;;;6.73;6.03;;;11.50;98.10;;;;;;5057193;28;20179;-50
2021/01/27 10:03:45;;;;;;;7.83;6.40;;;12.20;97.30;;;;;;5057737;28;20237;-57
2021/01/27 10:06:34;;;;;;;6.03;5.47;;;14.70;96.30;;;;;;5057923;28;20167;-58
2021/01/27 10:09:03;;;;;;;5.30;4.80;;;16.80;92.90;;;;;;5057551;28;20278;-51
2021/01/27 10:11:31;;;;;;;6.37;4.97;;;18.90;88.60;;;;;;5056767;28;20222;-53
2021/01/27 10:14:00;;;;;;;5.25;4.70;;;21.30;80.00;;;;;;5057350;28;20190;-54
2021/01/27 10:16:26;;;;;;;5.10;4.60;;;24.00;72.90;;;;;;5057669;28;20603;-55
2021/01/27 10:19:06;;;;;;;5.53;4.32;;;26.70;63.20;;;;;;5057958;28;20722;-54
2021/01/27 10:21:46;;;;;;;4.75;4.13;;;29.40;56.30;;;;;;5067148;28;20182;-58
2021/01/27 10:24:47;;;;;;;5.00;3.95;;;31.70;48.00;;;;;;5072341;28;20159;-58
2021/01/27 10:27:35;;;;;;;4.53;3.33;;;33.40;44.50;;;;;;5077041;28;20201;-55
2021/01/27 10:30:07;;;;;;;3.78;3.35;;;34.60;40.20;;;;;;5076516;28;20194;-58
2021/01/27 10:32:37;;;;;;;4.05;3.65;;;35.10;38.00;;;;;;5075842;28;20213;-55
2021/01/27 10:35:22;;;;;;;3.90;3.50;;;35.10;36.20;;;;;;5075788;28;20201;-51
2021/01/27 10:38:12;;;;;;;4.25;3.85;;;33.70;36.60;;;;;;5072737;28;20265;-54
2021/01/27 10:40:37;;;;;;;3.85;3.55;;;33.20;37.50;;;;;;5071071;28;20194;-56
2021/01/27 10:43:23;;;;;;;4.38;3.97;;;33.00;36.40;;;;;;5064126;28;20182;-50
2021/01/27 10:45:48;;;;;;;7.60;6.80;;;31.30;36.30;;;;;;5073083;28;20186;-53
2021/01/27 10:48:20;;;;;;;5.75;5.15;;;29.50;37.60;;;;;;5069270;28;20198;-50
2021/01/27 10:51:06;;;;;;;9.68;8.70;;;28.30;39.70;;;;;;5067422;28;20162;-50
2021/01/27 10:53:45;;;;;;;4.50;4.10;;;27.90;39.40;;;;;;5069099;28;20181;-55
2021/01/27 10:56:17;;;;;;;4.72;4.25;;;26.90;39.70;;;;;;5066210;28;20175;-53
2021/01/27 10:58:42;;;;;;;4.80;4.13;;;25.50;41.50;;;;;;5067982;28;20291;-49
2021/01/27 11:01:08;;;;;;;4.40;4.00;;;24.40;42.10;;;;;;5067458;28;20686;-52
2021/01/27 11:03:33;;;;;;;5.20;4.40;;;23.30;42.80;;;;;;5068178;28;20173;-54
2021/01/27 11:05:59;;;;;;;5.20;4.47;;;22.20;43.70;;;;;;5065082;28;20561;-54
2021/01/27 11:08:31;;;;;;;5.33;4.50;;;21.10;45.20;;;;;;5058864;28;20280;-50
2021/01/27 11:10:58;;;;;;;4.87;4.47;;;20.20;46.50;;;;;;5064385;28;20195;-50
2021/01/27 11:13:24;;;;;;;5.87;4.67;;;19.60;48.00;;;;;;5056154;28;20171;-54
2021/01/27 11:15:50;;;;;;;4.67;4.10;;;19.90;49.20;;;;;;5055948;28;20178;-49
2021/01/27 11:18:16;;;;;;;4.53;4.13;;;20.70;44.80;;;;;;5054901;28;20281;-53
2021/01/27 11:20:42;;;;;;;4.60;4.18;;;21.20;45.00;;;;;;5062955;28;20264;-50
2021/01/27 11:23:08;;;;;;;5.10;4.40;;;21.70;44.00;;;;;;5072425;28;20607;-53
2021/01/27 11:25:33;;;;;;;4.97;4.20;;;21.40;42.50;;;;;;5055023;28;20574;-51
2021/01/27 11:27:59;;;;;;;6.18;4.40;;;21.30;42.10;;;;;;5066343;28;20637;-52
2021/01/27 11:30:28;;;;;;;5.07;3.47;;;21.10;46.30;;;;;;5064031;28;20276;-55
2021/01/27 11:32:54;;;;;;;4.18;3.30;;;22.30;44.80;;;;;;5056640;28;20239;-54
2021/01/27 11:35:21;;;;;;;4.18;3.80;;;24.10;43.60;;;;;;5054826;28;20207;-49
2021/01/27 11:37:48;;;;;;;3.38;3.08;;;26.30;44.50;;;;;;5055894;28;20175;-56
2021/01/27 11:40:17;;;;;;;4.00;3.65;;;27.00;35.90;;;;;;5071162;28;20257;-52
2021/01/27 11:42:42;;;;;;;3.75;3.38;;;26.20;36.70;;;;;;5055164;28;20694;-49
2021/01/27 11:45:09;;;;;;;3.53;3.22;;;26.90;38.10;;;;;;5074823;28;20183;-48
2021/01/27 11:47:35;;;;;;;3.78;3.10;;;27.00;36.70;;;;;;5068060;28;20179;-53
2021/01/27 11:50:01;;;;;;;3.40;3.10;;;27.00;36.50;;;;;;5059157;28;20253;-49
2021/01/27 11:52:26;;;;;;;4.10;3.42;;;27.00;36.90;;;;;;5070271;28;20195;-50
2021/01/27 11:54:52;;;;;;;4.53;3.10;;;26.70;37.10;;;;;;5057355;28;20206;-53
2021/01/27 11:57:19;;;;;;;3.97;3.30;;;26.20;36.90;;;;;;5054700;28;20164;-49
2021/01/27 11:59:45;;;;;;;3.58;3.20;;;25.60;37.30;;;;;;5058276;28;20609;-50
2021/01/27 12:02:10;;;;;;;3.83;3.53;;;26.20;39.80;;;;;;5059710;28;20183;-54
2021/01/27 12:04:36;;;;;;;4.45;3.53;;;26.20;37.90;;;;;;5053086;28;20314;-56
2021/01/27 12:07:02;;;;;;;4.75;3.72;;;25.90;37.80;;;;;;5052620;28;20312;-51
2021/01/27 12:09:28;;;;;;;4.00;3.60;;;26.00;37.70;;;;;;5052482;28;20211;-51
2021/01/27 12:11:55;;;;;;;3.75;3.42;;;26.00;37.90;;;;;;5053056;28;20211;-52
2021/01/27 12:14:21;;;;;;;3.95;3.65;;;25.80;38.60;;;;;;5065680;28;20269;-55
2021/01/27 12:16:47;;;;;;;3.88;3.47;;;25.60;38.00;;;;;;5074264;28;20182;-54
2021/01/27 12:19:13;;;;;;;6.00;4.50;;;25.60;37.70;;;;;;5069828;28;20275;-52
2021/01/27 12:21:38;;;;;;;5.30;4.72;;;24.90;38.00;;;;;;5067717;28;20182;-55
2021/01/27 12:24:04;;;;;;;4.40;3.80;;;23.50;37.90;;;;;;5071760;28;20186;-49
2021/01/27 12:26:30;;;;;;;5.78;4.05;;;23.10;39.50;;;;;;5071539;28;20179;-56
2021/01/27 12:28:56;;;;;;;5.45;3.78;;;22.40;40.70;;;;;;5068618;28;20264;-55
2021/01/27 12:31:22;;;;;;;4.25;3.85;;;22.20;41.40;;;;;;5070191;28;20276;-50
2021/01/27 12:33:48;;;;;;;4.28;3.88;;;22.10;41.60;;;;;;5072722;28;20228;-54
2021/01/27 12:36:14;;;;;;;5.15;4.30;;;22.60;43.50;;;;;;5073479;28;20174;-56
2021/01/27 12:38:39;;;;;;;6.00;4.57;;;22.70;41.40;;;;;;5073764;28;20195;-58
2021/01/27 12:41:05;;;;;;;4.53;4.13;;;22.60;43.00;;;;;;5054749;28;20202;-51
2021/01/27 12:43:30;;;;;;;5.00;4.43;;;23.20;41.40;;;;;;5069598;28;20179;-49
2021/01/27 12:45:56;;;;;;;5.32;4.53;;;22.40;40.20;;;;;;5061206;28;20187;-55
2021/01/27 12:48:22;;;;;;;5.32;4.82;;;21.00;41.80;;;;;;5065614;28;20689;-54
2021/01/27 12:50:48;;;;;;;11.10;9.77;;;20.20;43.50;;;;;;5055746;28;20198;-53
2021/01/27 12:53:13;;;;;;;5.85;5.25;;;20.10;44.90;;;;;;5054142;28;20217;-50
2021/01/27 12:55:39;;;;;;;5.00;4.50;;;20.00;43.70;;;;;;5053913;28;20175;-54
2021/01/27 12:58:04;;;;;;;5.55;4.65;;;20.30;43.40;;;;;;5054205;28;20182;-53
2021/01/27 13:00:30;;;;;;;4.65;4.25;;;20.60;43.50;;;;;;5063508;28;20274;-50
2021/01/27 13:02:56;;;;;;;5.15;4.22;;;21.30;43.20;;;;;;5054234;28;20535;-56
2021/01/27 13:05:24;;;;;;;4.85;4.45;;;21.50;42.60;;;;;;5057773;28;20647;-49
2021/01/27 13:07:49;;;;;;;6.03;5.07;;;21.10;42.30;;;;;;5070218;28;20182;-50
2021/01/27 13:10:17;;;;;;;4.97;4.47;;;20.20;41.40;;;;;;5061199;28;20214;-52
2021/01/27 13:12:43;;;;;;;6.13;5.53;;;19.80;42.80;;;;;;5070595;28;20206;-55
2021/01/27 13:15:12;;;;;;;5.97;5.37;;;18.70;42.10;;;;;;5071282;28;20577;-51
2021/01/27 13:17:38;;;;;;;4.83;4.37;;;18.10;44.20;;;;;;5061715;28;20582;-48